Terminal Aerodrome Forecast
Issued by NWS Charleston, WV

Current Version | Previous Version | Graphics & Text | Print | Product List | Glossary On
Versions: 1 2 3 4 5 6 7 8 9 10 11 12 13 14 15 16 17 18 19 20 21 22 23 24 25 26
780
FTUS41 KRLX 280903 AAA
TAFPKB
TAF AMD
KPKB 280903Z 2809/2906 00000KT 6SM -RA BR SCT040 BKN050 OVC090
     FM281100 10004KT 4SM BR VCSH OVC025
     FM281200 19005KT 4SM BR VCSH BKN015
     FM281400 22006KT P6SM BKN015
     FM281500 24007KT P6SM VCSH BKN025
     FM282200 00000KT P6SM SCT035=

USA.gov is the U.S. government's official web portal to all federal, state and local government web resources and services.